sensor_id;sensor_type;location;lat;lon;timestamp;P1;durP1;ratioP1;P2;durP2;ratioP2
19605;SDS011;9950;50.168;8.210;2023-04-03T00:01:35;6.47;;;3.50;;
19605;SDS011;9950;50.168;8.210;2023-04-03T00:04:03;6.57;;;2.90;;
19605;SDS011;9950;50.168;8.210;2023-04-03T00:06:32;5.22;;;2.80;;
19605;SDS011;9950;50.168;8.210;2023-04-03T00:09:00;4.78;;;2.63;;
19605;SDS011;9950;50.168;8.210;2023-04-03T00:11:27;5.72;;;2.40;;
19605;SDS011;9950;50.168;8.210;2023-04-03T00:13:54;6.82;;;2.45;;
19605;SDS011;9950;50.168;8.210;2023-04-03T00:16:21;6.75;;;2.83;;
19605;SDS011;9950;50.168;8.210;2023-04-03T00:18:48;5.40;;;2.88;;
19605;SDS011;9950;50.168;8.210;2023-04-03T00:21:16;5.10;;;2.70;;
19605;SDS011;9950;50.168;8.210;2023-04-03T00:23:44;4.68;;;2.80;;
19605;SDS011;9950;50.168;8.210;2023-04-03T00:26:11;7.30;;;2.85;;
19605;SDS011;9950;50.168;8.210;2023-04-03T00:28:39;5.40;;;2.50;;
19605;SDS011;9950;50.168;8.210;2023-04-03T00:31:06;3.90;;;2.85;;
19605;SDS011;9950;50.168;8.210;2023-04-03T00:33:33;5.25;;;3.03;;
19605;SDS011;9950;50.168;8.210;2023-04-03T00:36:04;5.50;;;2.60;;
19605;SDS011;9950;50.168;8.210;2023-04-03T00:38:32;8.05;;;2.92;;
19605;SDS011;9950;50.168;8.210;2023-04-03T00:41:00;6.65;;;2.65;;
19605;SDS011;9950;50.168;8.210;2023-04-03T00:43:27;5.20;;;2.80;;
19605;SDS011;9950;50.168;8.210;2023-04-03T00:45:56;4.40;;;2.60;;
19605;SDS011;9950;50.168;8.210;2023-04-03T00:48:24;5.72;;;2.63;;
19605;SDS011;9950;50.168;8.210;2023-04-03T00:50:52;4.47;;;2.70;;
19605;SDS011;9950;50.168;8.210;2023-04-03T00:53:22;4.47;;;2.75;;
19605;SDS011;9950;50.168;8.210;2023-04-03T00:55:50;3.95;;;2.50;;
19605;SDS011;9950;50.168;8.210;2023-04-03T00:58:19;7.13;;;2.80;;
19605;SDS011;9950;50.168;8.210;2023-04-03T01:00:48;4.38;;;2.40;;
19605;SDS011;9950;50.168;8.210;2023-04-03T01:03:16;4.10;;;2.67;;
19605;SDS011;9950;50.168;8.210;2023-04-03T01:05:43;4.32;;;2.35;;
19605;SDS011;9950;50.168;8.210;2023-04-03T01:08:11;4.50;;;2.60;;
19605;SDS011;9950;50.168;8.210;2023-04-03T01:10:38;3.30;;;2.42;;
19605;SDS011;9950;50.168;8.210;2023-04-03T01:13:18;4.07;;;2.63;;
19605;SDS011;9950;50.168;8.210;2023-04-03T01:15:46;5.15;;;2.50;;
19605;SDS011;9950;50.168;8.210;2023-04-03T01:18:14;4.45;;;2.38;;
19605;SDS011;9950;50.168;8.210;2023-04-03T01:20:57;5.35;;;2.33;;
19605;SDS011;9950;50.168;8.210;2023-04-03T01:23:32;3.40;;;2.10;;
19605;SDS011;9950;50.168;8.210;2023-04-03T01:26:01;4.38;;;1.95;;
19605;SDS011;9950;50.168;8.210;2023-04-03T01:28:30;4.50;;;2.65;;
19605;SDS011;9950;50.168;8.210;2023-04-03T01:31:00;5.03;;;2.20;;
19605;SDS011;9950;50.168;8.210;2023-04-03T01:33:30;7.30;;;2.78;;
19605;SDS011;9950;50.168;8.210;2023-04-03T01:35:57;3.33;;;1.98;;
19605;SDS011;9950;50.168;8.210;2023-04-03T01:38:25;4.90;;;2.53;;
19605;SDS011;9950;50.168;8.210;2023-04-03T01:40:52;2.65;;;2.00;;
19605;SDS011;9950;50.168;8.210;2023-04-03T01:43:19;4.55;;;2.47;;
19605;SDS011;9950;50.168;8.210;2023-04-03T01:45:46;5.05;;;2.30;;
19605;SDS011;9950;50.168;8.210;2023-04-03T01:48:14;4.30;;;1.85;;
19605;SDS011;9950;50.168;8.210;2023-04-03T01:50:42;4.82;;;1.75;;
19605;SDS011;9950;50.168;8.210;2023-04-03T01:53:10;6.28;;;1.90;;
19605;SDS011;9950;50.168;8.210;2023-04-03T01:55:37;2.08;;;1.55;;
19605;SDS011;9950;50.168;8.210;2023-04-03T01:58:04;5.53;;;1.90;;
19605;SDS011;9950;50.168;8.210;2023-04-03T02:00:31;2.75;;;1.60;;
19605;SDS011;9950;50.168;8.210;2023-04-03T02:02:58;2.97;;;2.15;;
19605;SDS011;9950;50.168;8.210;2023-04-03T02:05:26;3.75;;;1.80;;
19605;SDS011;9950;50.168;8.210;2023-04-03T02:07:54;5.22;;;1.77;;
19605;SDS011;9950;50.168;8.210;2023-04-03T02:10:21;2.75;;;1.65;;
19605;SDS011;9950;50.168;8.210;2023-04-03T02:12:48;3.28;;;1.65;;
19605;SDS011;9950;50.168;8.210;2023-04-03T02:15:16;3.60;;;1.90;;
19605;SDS011;9950;50.168;8.210;2023-04-03T02:17:43;4.68;;;1.60;;
19605;SDS011;9950;50.168;8.210;2023-04-03T02:20:10;6.03;;;1.98;;
19605;SDS011;9950;50.168;8.210;2023-04-03T02:22:37;4.35;;;1.70;;
19605;SDS011;9950;50.168;8.210;2023-04-03T02:25:06;3.28;;;1.70;;
19605;SDS011;9950;50.168;8.210;2023-04-03T02:27:34;5.75;;;1.67;;
19605;SDS011;9950;50.168;8.210;2023-04-03T02:30:02;3.40;;;1.70;;
19605;SDS011;9950;50.168;8.210;2023-04-03T02:32:29;4.65;;;1.60;;
19605;SDS011;9950;50.168;8.210;2023-04-03T02:34:56;3.80;;;1.98;;
19605;SDS011;9950;50.168;8.210;2023-04-03T02:37:23;2.95;;;1.67;;
19605;SDS011;9950;50.168;8.210;2023-04-03T02:39:51;2.22;;;1.48;;
19605;SDS011;9950;50.168;8.210;2023-04-03T02:42:19;3.58;;;1.55;;
19605;SDS011;9950;50.168;8.210;2023-04-03T02:44:46;5.07;;;1.70;;
19605;SDS011;9950;50.168;8.210;2023-04-03T02:47:13;3.95;;;2.38;;
19605;SDS011;9950;50.168;8.210;2023-04-03T02:49:41;5.13;;;1.88;;
19605;SDS011;9950;50.168;8.210;2023-04-03T02:52:10;3.92;;;1.70;;
19605;SDS011;9950;50.168;8.210;2023-04-03T02:54:37;6.45;;;1.90;;
19605;SDS011;9950;50.168;8.210;2023-04-03T02:57:04;2.83;;;1.50;;
19605;SDS011;9950;50.168;8.210;2023-04-03T02:59:35;6.10;;;1.80;;
19605;SDS011;9950;50.168;8.210;2023-04-03T03:02:02;3.25;;;1.52;;
19605;SDS011;9950;50.168;8.210;2023-04-03T03:04:30;5.43;;;1.77;;
19605;SDS011;9950;50.168;8.210;2023-04-03T03:06:57;5.28;;;1.77;;
19605;SDS011;9950;50.168;8.210;2023-04-03T03:09:24;9.55;;;1.88;;
19605;SDS011;9950;50.168;8.210;2023-04-03T03:11:51;6.63;;;2.05;;
19605;SDS011;9950;50.168;8.210;2023-04-03T03:14:18;8.40;;;2.15;;
19605;SDS011;9950;50.168;8.210;2023-04-03T03:16:47;3.53;;;1.80;;
19605;SDS011;9950;50.168;8.210;2023-04-03T03:19:14;4.43;;;1.60;;
19605;SDS011;9950;50.168;8.210;2023-04-03T03:21:41;3.92;;;1.73;;
19605;SDS011;9950;50.168;8.210;2023-04-03T03:24:08;5.25;;;1.98;;
19605;SDS011;9950;50.168;8.210;2023-04-03T03:26:37;5.18;;;2.90;;
19605;SDS011;9950;50.168;8.210;2023-04-03T03:29:04;4.35;;;1.92;;
19605;SDS011;9950;50.168;8.210;2023-04-03T03:31:31;4.93;;;1.70;;
19605;SDS011;9950;50.168;8.210;2023-04-03T03:33:59;4.07;;;1.60;;
19605;SDS011;9950;50.168;8.210;2023-04-03T03:36:27;6.60;;;1.88;;
19605;SDS011;9950;50.168;8.210;2023-04-03T03:38:54;5.50;;;2.15;;
19605;SDS011;9950;50.168;8.210;2023-04-03T03:41:21;3.15;;;1.60;;
19605;SDS011;9950;50.168;8.210;2023-04-03T03:43:48;9.25;;;1.85;;
19605;SDS011;9950;50.168;8.210;2023-04-03T03:46:15;5.20;;;1.83;;
19605;SDS011;9950;50.168;8.210;2023-04-03T03:48:43;8.25;;;2.78;;
19605;SDS011;9950;50.168;8.210;2023-04-03T03:51:11;5.40;;;1.80;;
19605;SDS011;9950;50.168;8.210;2023-04-03T03:53:38;5.63;;;2.70;;
19605;SDS011;9950;50.168;8.210;2023-04-03T03:56:06;6.72;;;1.88;;
19605;SDS011;9950;50.168;8.210;2023-04-03T03:58:33;2.88;;;1.50;;
19605;SDS011;9950;50.168;8.210;2023-04-03T04:01:00;3.90;;;1.92;;
19605;SDS011;9950;50.168;8.210;2023-04-03T04:03:28;3.80;;;1.83;;
19605;SDS011;9950;50.168;8.210;2023-04-03T04:05:55;9.55;;;2.05;;
19605;SDS011;9950;50.168;8.210;2023-04-03T04:08:24;7.00;;;2.00;;
19605;SDS011;9950;50.168;8.210;2023-04-03T04:10:51;3.80;;;1.80;;
19605;SDS011;9950;50.168;8.210;2023-04-03T04:13:18;6.22;;;2.35;;
19605;SDS011;9950;50.168;8.210;2023-04-03T04:15:45;3.38;;;1.88;;
19605;SDS011;9950;50.168;8.210;2023-04-03T04:18:12;5.82;;;1.83;;
19605;SDS011;9950;50.168;8.210;2023-04-03T04:20:39;5.63;;;2.10;;
19605;SDS011;9950;50.168;8.210;2023-04-03T04:23:07;3.95;;;1.70;;
19605;SDS011;9950;50.168;8.210;2023-04-03T04:25:35;4.15;;;1.83;;
19605;SDS011;9950;50.168;8.210;2023-04-03T04:28:02;7.47;;;2.17;;
19605;SDS011;9950;50.168;8.210;2023-04-03T04:30:30;3.80;;;1.40;;
19605;SDS011;9950;50.168;8.210;2023-04-03T04:32:57;5.70;;;1.75;;
19605;SDS011;9950;50.168;8.210;2023-04-03T04:35:24;3.28;;;1.70;;
19605;SDS011;9950;50.168;8.210;2023-04-03T04:37:52;4.97;;;1.70;;
19605;SDS011;9950;50.168;8.210;2023-04-03T04:40:19;3.85;;;1.73;;
19605;SDS011;9950;50.168;8.210;2023-04-03T04:42:47;6.45;;;2.05;;
19605;SDS011;9950;50.168;8.210;2023-04-03T04:45:15;3.15;;;1.48;;
19605;SDS011;9950;50.168;8.210;2023-04-03T04:47:42;4.78;;;2.00;;
19605;SDS011;9950;50.168;8.210;2023-04-03T04:50:09;6.20;;;2.00;;
19605;SDS011;9950;50.168;8.210;2023-04-03T04:52:37;6.88;;;1.83;;
19605;SDS011;9950;50.168;8.210;2023-04-03T04:55:05;5.38;;;2.05;;
19605;SDS011;9950;50.168;8.210;2023-04-03T04:57:32;10.60;;;1.90;;
19605;SDS011;9950;50.168;8.210;2023-04-03T05:00:01;5.05;;;2.05;;
19605;SDS011;9950;50.168;8.210;2023-04-03T05:02:29;5.40;;;1.90;;
19605;SDS011;9950;50.168;8.210;2023-04-03T05:04:56;6.47;;;1.98;;
19605;SDS011;9950;50.168;8.210;2023-04-03T05:07:23;5.95;;;1.88;;
19605;SDS011;9950;50.168;8.210;2023-04-03T05:09:51;6.15;;;2.15;;
19605;SDS011;9950;50.168;8.210;2023-04-03T05:12:18;6.50;;;2.10;;
19605;SDS011;9950;50.168;8.210;2023-04-03T05:14:45;6.35;;;2.00;;
19605;SDS011;9950;50.168;8.210;2023-04-03T05:17:14;5.65;;;2.25;;
19605;SDS011;9950;50.168;8.210;2023-04-03T05:19:41;5.57;;;2.10;;
19605;SDS011;9950;50.168;8.210;2023-04-03T05:22:08;3.40;;;1.65;;
19605;SDS011;9950;50.168;8.210;2023-04-03T05:24:35;5.22;;;1.70;;
19605;SDS011;9950;50.168;8.210;2023-04-03T05:27:03;6.95;;;2.08;;
19605;SDS011;9950;50.168;8.210;2023-04-03T05:29:30;6.60;;;2.17;;
19605;SDS011;9950;50.168;8.210;2023-04-03T05:31:57;4.15;;;1.77;;
19605;SDS011;9950;50.168;8.210;2023-04-03T05:34:26;5.15;;;2.13;;
19605;SDS011;9950;50.168;8.210;2023-04-03T05:36:54;6.45;;;2.33;;
19605;SDS011;9950;50.168;8.210;2023-04-03T05:39:21;8.85;;;2.03;;
19605;SDS011;9950;50.168;8.210;2023-04-03T05:41:49;7.22;;;1.70;;
19605;SDS011;9950;50.168;8.210;2023-04-03T05:44:16;5.93;;;2.20;;
19605;SDS011;9950;50.168;8.210;2023-04-03T05:46:43;4.90;;;1.77;;
19605;SDS011;9950;50.168;8.210;2023-04-03T05:49:10;6.57;;;2.20;;
19605;SDS011;9950;50.168;8.210;2023-04-03T05:51:39;6.00;;;2.03;;
19605;SDS011;9950;50.168;8.210;2023-04-03T05:54:08;4.10;;;2.03;;
19605;SDS011;9950;50.168;8.210;2023-04-03T05:56:36;5.47;;;1.80;;
19605;SDS011;9950;50.168;8.210;2023-04-03T05:59:04;4.10;;;2.05;;
19605;SDS011;9950;50.168;8.210;2023-04-03T06:01:32;3.85;;;2.08;;
19605;SDS011;9950;50.168;8.210;2023-04-03T06:04:00;7.38;;;2.00;;
19605;SDS011;9950;50.168;8.210;2023-04-03T06:09:11;10.20;;;2.25;;
19605;SDS011;9950;50.168;8.210;2023-04-03T06:11:39;8.07;;;2.15;;
19605;SDS011;9950;50.168;8.210;2023-04-03T06:14:07;4.45;;;2.00;;
19605;SDS011;9950;50.168;8.210;2023-04-03T06:16:34;4.95;;;1.70;;
19605;SDS011;9950;50.168;8.210;2023-04-03T06:19:02;6.38;;;1.90;;
19605;SDS011;9950;50.168;8.210;2023-04-03T06:21:29;7.28;;;2.10;;
19605;SDS011;9950;50.168;8.210;2023-04-03T06:23:56;8.35;;;2.20;;
19605;SDS011;9950;50.168;8.210;2023-04-03T06:26:26;5.00;;;2.00;;
19605;SDS011;9950;50.168;8.210;2023-04-03T06:28:53;4.68;;;2.13;;
19605;SDS011;9950;50.168;8.210;2023-04-03T06:31:21;5.15;;;1.92;;
19605;SDS011;9950;50.168;8.210;2023-04-03T06:33:48;8.93;;;2.30;;
19605;SDS011;9950;50.168;8.210;2023-04-03T06:36:15;6.05;;;2.08;;
19605;SDS011;9950;50.168;8.210;2023-04-03T06:38:45;4.38;;;2.15;;
19605;SDS011;9950;50.168;8.210;2023-04-03T06:41:13;7.05;;;2.40;;
19605;SDS011;9950;50.168;8.210;2023-04-03T06:43:42;4.47;;;1.95;;
19605;SDS011;9950;50.168;8.210;2023-04-03T06:46:12;5.00;;;2.00;;
19605;SDS011;9950;50.168;8.210;2023-04-03T06:48:41;5.72;;;2.22;;
19605;SDS011;9950;50.168;8.210;2023-04-03T06:51:10;4.82;;;2.17;;
19605;SDS011;9950;50.168;8.210;2023-04-03T06:53:38;7.20;;;2.58;;
19605;SDS011;9950;50.168;8.210;2023-04-03T06:56:05;6.60;;;2.45;;
19605;SDS011;9950;50.168;8.210;2023-04-03T06:58:32;3.53;;;2.00;;
19605;SDS011;9950;50.168;8.210;2023-04-03T07:01:01;5.32;;;2.00;;
19605;SDS011;9950;50.168;8.210;2023-04-03T07:03:28;5.30;;;2.05;;
19605;SDS011;9950;50.168;8.210;2023-04-03T07:05:55;3.67;;;2.22;;
19605;SDS011;9950;50.168;8.210;2023-04-03T07:08:22;5.57;;;2.47;;
19605;SDS011;9950;50.168;8.210;2023-04-03T07:10:51;6.78;;;2.10;;
19605;SDS011;9950;50.168;8.210;2023-04-03T07:13:18;4.85;;;1.80;;
19605;SDS011;9950;50.168;8.210;2023-04-03T07:15:45;5.18;;;2.13;;
19605;SDS011;9950;50.168;8.210;2023-04-03T07:18:14;5.25;;;2.08;;
19605;SDS011;9950;50.168;8.210;2023-04-03T07:20:42;4.93;;;1.90;;
19605;SDS011;9950;50.168;8.210;2023-04-03T07:23:09;5.45;;;2.20;;
19605;SDS011;9950;50.168;8.210;2023-04-03T07:25:36;7.40;;;2.38;;
19605;SDS011;9950;50.168;8.210;2023-04-03T07:28:03;9.75;;;2.17;;
19605;SDS011;9950;50.168;8.210;2023-04-03T07:30:33;5.43;;;2.47;;
19605;SDS011;9950;50.168;8.210;2023-04-03T07:33:00;6.78;;;2.90;;
19605;SDS011;9950;50.168;8.210;2023-04-03T07:35:29;4.13;;;2.10;;
19605;SDS011;9950;50.168;8.210;2023-04-03T07:37:56;5.35;;;2.17;;
19605;SDS011;9950;50.168;8.210;2023-04-03T07:40:23;4.20;;;2.25;;
19605;SDS011;9950;50.168;8.210;2023-04-03T07:42:50;5.68;;;2.05;;
19605;SDS011;9950;50.168;8.210;2023-04-03T07:45:18;3.78;;;1.77;;
19605;SDS011;9950;50.168;8.210;2023-04-03T07:47:45;5.72;;;1.73;;
19605;SDS011;9950;50.168;8.210;2023-04-03T07:50:16;6.28;;;2.03;;
19605;SDS011;9950;50.168;8.210;2023-04-03T07:52:44;2.92;;;1.80;;
19605;SDS011;9950;50.168;8.210;2023-04-03T07:55:12;4.05;;;1.88;;
19605;SDS011;9950;50.168;8.210;2023-04-03T07:57:39;5.03;;;1.90;;
19605;SDS011;9950;50.168;8.210;2023-04-03T08:00:07;3.78;;;1.63;;
19605;SDS011;9950;50.168;8.210;2023-04-03T08:02:35;7.10;;;2.08;;
19605;SDS011;9950;50.168;8.210;2023-04-03T08:05:02;6.32;;;1.60;;
19605;SDS011;9950;50.168;8.210;2023-04-03T08:07:29;6.85;;;2.22;;
19605;SDS011;9950;50.168;8.210;2023-04-03T08:09:58;6.18;;;1.98;;
19605;SDS011;9950;50.168;8.210;2023-04-03T08:12:25;4.03;;;2.00;;
19605;SDS011;9950;50.168;8.210;2023-04-03T08:14:53;4.88;;;2.00;;
19605;SDS011;9950;50.168;8.210;2023-04-03T08:17:20;9.30;;;2.40;;
19605;SDS011;9950;50.168;8.210;2023-04-03T08:19:48;6.35;;;2.47;;
19605;SDS011;9950;50.168;8.210;2023-04-03T08:22:15;5.07;;;2.20;;
19605;SDS011;9950;50.168;8.210;2023-04-03T08:24:42;6.05;;;2.20;;
19605;SDS011;9950;50.168;8.210;2023-04-03T08:27:11;4.68;;;2.40;;
19605;SDS011;9950;50.168;8.210;2023-04-03T08:29:39;5.72;;;2.60;;
19605;SDS011;9950;50.168;8.210;2023-04-03T08:32:06;6.18;;;2.42;;
19605;SDS011;9950;50.168;8.210;2023-04-03T08:34:34;5.55;;;2.20;;
19605;SDS011;9950;50.168;8.210;2023-04-03T08:37:02;7.72;;;2.35;;
19605;SDS011;9950;50.168;8.210;2023-04-03T08:39:29;4.70;;;2.17;;
19605;SDS011;9950;50.168;8.210;2023-04-03T08:41:57;4.93;;;2.20;;
19605;SDS011;9950;50.168;8.210;2023-04-03T08:44:30;5.13;;;2.30;;
19605;SDS011;9950;50.168;8.210;2023-04-03T08:47:07;5.03;;;2.30;;
19605;SDS011;9950;50.168;8.210;2023-04-03T08:49:39;4.30;;;2.35;;
19605;SDS011;9950;50.168;8.210;2023-04-03T08:52:12;4.70;;;2.30;;
19605;SDS011;9950;50.168;8.210;2023-04-03T08:54:43;6.50;;;2.20;;
19605;SDS011;9950;50.168;8.210;2023-04-03T08:57:15;6.75;;;2.47;;
19605;SDS011;9950;50.168;8.210;2023-04-03T08:59:44;4.75;;;2.20;;
19605;SDS011;9950;50.168;8.210;2023-04-03T09:02:21;2.90;;;2.00;;
19605;SDS011;9950;50.168;8.210;2023-04-03T09:04:51;3.78;;;1.80;;
19605;SDS011;9950;50.168;8.210;2023-04-03T09:07:20;6.32;;;2.08;;
19605;SDS011;9950;50.168;8.210;2023-04-03T09:09:49;5.85;;;2.00;;
19605;SDS011;9950;50.168;8.210;2023-04-03T09:12:18;4.40;;;1.88;;
19605;SDS011;9950;50.168;8.210;2023-04-03T09:14:52;4.70;;;1.98;;
19605;SDS011;9950;50.168;8.210;2023-04-03T09:17:27;6.18;;;2.08;;
19605;SDS011;9950;50.168;8.210;2023-04-03T09:19:58;4.05;;;1.80;;
19605;SDS011;9950;50.168;8.210;2023-04-03T09:22:31;4.07;;;1.90;;
19605;SDS011;9950;50.168;8.210;2023-04-03T09:25:01;5.60;;;2.05;;
19605;SDS011;9950;50.168;8.210;2023-04-03T09:27:29;4.30;;;2.28;;
19605;SDS011;9950;50.168;8.210;2023-04-03T09:29:58;2.70;;;1.70;;
19605;SDS011;9950;50.168;8.210;2023-04-03T09:32:26;4.55;;;1.70;;
19605;SDS011;9950;50.168;8.210;2023-04-03T09:34:54;5.38;;;2.00;;
19605;SDS011;9950;50.168;8.210;2023-04-03T09:37:35;3.97;;;1.70;;
19605;SDS011;9950;50.168;8.210;2023-04-03T09:40:03;5.10;;;1.98;;
19605;SDS011;9950;50.168;8.210;2023-04-03T09:42:32;6.05;;;1.85;;
19605;SDS011;9950;50.168;8.210;2023-04-03T09:45:01;4.90;;;2.00;;
19605;SDS011;9950;50.168;8.210;2023-04-03T09:47:31;5.78;;;2.10;;
19605;SDS011;9950;50.168;8.210;2023-04-03T09:50:10;6.25;;;2.28;;
19605;SDS011;9950;50.168;8.210;2023-04-03T09:52:43;4.30;;;1.95;;
19605;SDS011;9950;50.168;8.210;2023-04-03T09:55:13;5.32;;;1.98;;
19605;SDS011;9950;50.168;8.210;2023-04-03T09:57:41;5.63;;;2.17;;
19605;SDS011;9950;50.168;8.210;2023-04-03T10:00:19;3.92;;;2.05;;
19605;SDS011;9950;50.168;8.210;2023-04-03T10:02:46;4.72;;;2.08;;
19605;SDS011;9950;50.168;8.210;2023-04-03T10:05:27;3.72;;;2.13;;
19605;SDS011;9950;50.168;8.210;2023-04-03T10:08:06;4.40;;;2.25;;
19605;SDS011;9950;50.168;8.210;2023-04-03T10:10:34;5.72;;;2.50;;
19605;SDS011;9950;50.168;8.210;2023-04-03T10:13:05;4.40;;;2.45;;
19605;SDS011;9950;50.168;8.210;2023-04-03T10:15:36;5.70;;;2.25;;
19605;SDS011;9950;50.168;8.210;2023-04-03T10:18:07;4.22;;;2.40;;
19605;SDS011;9950;50.168;8.210;2023-04-03T10:20:43;2.75;;;1.88;;
19605;SDS011;9950;50.168;8.210;2023-04-03T10:23:15;3.60;;;2.33;;
19605;SDS011;9950;50.168;8.210;2023-04-03T10:25:47;4.13;;;2.25;;
19605;SDS011;9950;50.168;8.210;2023-04-03T10:28:17;4.50;;;2.10;;
19605;SDS011;9950;50.168;8.210;2023-04-03T10:30:48;4.95;;;2.13;;
19605;SDS011;9950;50.168;8.210;2023-04-03T10:33:25;4.47;;;2.42;;
19605;SDS011;9950;50.168;8.210;2023-04-03T10:36:01;3.33;;;2.45;;
19605;SDS011;9950;50.168;8.210;2023-04-03T10:38:31;2.88;;;1.90;;
19605;SDS011;9950;50.168;8.210;2023-04-03T10:41:02;5.25;;;2.10;;
19605;SDS011;9950;50.168;8.210;2023-04-03T10:43:33;3.35;;;2.10;;
19605;SDS011;9950;50.168;8.210;2023-04-03T10:46:05;5.78;;;2.15;;
19605;SDS011;9950;50.168;8.210;2023-04-03T10:48:41;6.75;;;2.13;;
19605;SDS011;9950;50.168;8.210;2023-04-03T10:51:13;4.50;;;2.10;;
19605;SDS011;9950;50.168;8.210;2023-04-03T10:53:44;4.22;;;2.38;;
19605;SDS011;9950;50.168;8.210;2023-04-03T10:56:18;4.07;;;1.90;;
19605;SDS011;9950;50.168;8.210;2023-04-03T10:58:48;5.47;;;2.17;;
19605;SDS011;9950;50.168;8.210;2023-04-03T11:01:19;6.10;;;2.42;;
19605;SDS011;9950;50.168;8.210;2023-04-03T11:03:48;2.45;;;1.88;;
19605;SDS011;9950;50.168;8.210;2023-04-03T11:06:18;3.97;;;1.98;;
19605;SDS011;9950;50.168;8.210;2023-04-03T11:08:49;5.47;;;1.85;;
19605;SDS011;9950;50.168;8.210;2023-04-03T11:11:20;3.17;;;1.83;;
19605;SDS011;9950;50.168;8.210;2023-04-03T11:13:49;2.67;;;1.95;;
19605;SDS011;9950;50.168;8.210;2023-04-03T11:16:23;3.60;;;1.85;;
19605;SDS011;9950;50.168;8.210;2023-04-03T11:18:52;3.38;;;2.13;;
19605;SDS011;9950;50.168;8.210;2023-04-03T11:21:21;5.85;;;2.05;;
19605;SDS011;9950;50.168;8.210;2023-04-03T11:23:51;3.35;;;1.88;;
19605;SDS011;9950;50.168;8.210;2023-04-03T11:26:19;4.10;;;1.80;;
19605;SDS011;9950;50.168;8.210;2023-04-03T11:28:52;2.85;;;1.70;;
19605;SDS011;9950;50.168;8.210;2023-04-03T11:31:25;2.72;;;1.98;;
19605;SDS011;9950;50.168;8.210;2023-04-03T11:33:58;2.97;;;1.77;;
19605;SDS011;9950;50.168;8.210;2023-04-03T11:36:30;4.97;;;1.67;;
19605;SDS011;9950;50.168;8.210;2023-04-03T11:38:59;5.57;;;2.00;;
19605;SDS011;9950;50.168;8.210;2023-04-03T11:41:28;2.33;;;1.63;;
19605;SDS011;9950;50.168;8.210;2023-04-03T11:43:57;2.22;;;1.95;;
19605;SDS011;9950;50.168;8.210;2023-04-03T11:49:08;5.32;;;1.85;;
19605;SDS011;9950;50.168;8.210;2023-04-03T11:51:55;3.30;;;1.80;;
19605;SDS011;9950;50.168;8.210;2023-04-03T11:54:35;2.92;;;1.80;;
19605;SDS011;9950;50.168;8.210;2023-04-03T11:59:44;4.35;;;1.83;;
19605;SDS011;9950;50.168;8.210;2023-04-03T12:07:37;4.28;;;1.83;;
19605;SDS011;9950;50.168;8.210;2023-04-03T12:10:15;2.95;;;1.73;;
19605;SDS011;9950;50.168;8.210;2023-04-03T12:12:43;3.55;;;1.73;;
19605;SDS011;9950;50.168;8.210;2023-04-03T12:15:26;2.47;;;1.67;;
19605;SDS011;9950;50.168;8.210;2023-04-03T12:17:53;4.47;;;1.80;;
19605;SDS011;9950;50.168;8.210;2023-04-03T12:23:21;3.88;;;1.90;;
19605;SDS011;9950;50.168;8.210;2023-04-03T12:25:50;4.00;;;1.92;;
19605;SDS011;9950;50.168;8.210;2023-04-03T12:28:18;3.78;;;2.03;;
19605;SDS011;9950;50.168;8.210;2023-04-03T12:30:45;3.92;;;2.05;;
19605;SDS011;9950;50.168;8.210;2023-04-03T12:33:18;6.15;;;2.20;;
19605;SDS011;9950;50.168;8.210;2023-04-03T12:35:51;2.47;;;1.90;;
19605;SDS011;9950;50.168;8.210;2023-04-03T12:38:33;2.65;;;2.00;;
19605;SDS011;9950;50.168;8.210;2023-04-03T12:41:11;3.08;;;1.90;;
19605;SDS011;9950;50.168;8.210;2023-04-03T12:43:43;2.53;;;1.70;;
19605;SDS011;9950;50.168;8.210;2023-04-03T12:46:15;3.90;;;2.00;;
19605;SDS011;9950;50.168;8.210;2023-04-03T12:48:47;2.70;;;2.00;;
19605;SDS011;9950;50.168;8.210;2023-04-03T12:51:14;3.17;;;2.10;;
19605;SDS011;9950;50.168;8.210;2023-04-03T12:53:44;2.85;;;1.88;;
19605;SDS011;9950;50.168;8.210;2023-04-03T12:56:21;3.65;;;1.83;;
19605;SDS011;9950;50.168;8.210;2023-04-03T12:58:49;3.97;;;2.15;;
19605;SDS011;9950;50.168;8.210;2023-04-03T13:01:18;3.10;;;1.98;;
19605;SDS011;9950;50.168;8.210;2023-04-03T13:03:50;2.95;;;2.15;;
19605;SDS011;9950;50.168;8.210;2023-04-03T13:06:19;3.35;;;2.15;;
19605;SDS011;9950;50.168;8.210;2023-04-03T13:08:50;2.38;;;1.92;;
19605;SDS011;9950;50.168;8.210;2023-04-03T13:11:17;4.55;;;1.90;;
19605;SDS011;9950;50.168;8.210;2023-04-03T13:13:56;3.92;;;1.70;;
19605;SDS011;9950;50.168;8.210;2023-04-03T13:16:24;3.95;;;1.77;;
19605;SDS011;9950;50.168;8.210;2023-04-03T13:18:52;3.50;;;1.70;;
19605;SDS011;9950;50.168;8.210;2023-04-03T13:21:20;4.25;;;2.08;;
19605;SDS011;9950;50.168;8.210;2023-04-03T13:23:51;2.85;;;2.00;;
19605;SDS011;9950;50.168;8.210;2023-04-03T13:26:20;2.33;;;1.70;;
19605;SDS011;9950;50.168;8.210;2023-04-03T13:28:48;2.95;;;1.73;;
19605;SDS011;9950;50.168;8.210;2023-04-03T13:31:19;3.30;;;1.63;;
19605;SDS011;9950;50.168;8.210;2023-04-03T13:33:52;2.08;;;1.48;;
19605;SDS011;9950;50.168;8.210;2023-04-03T13:36:21;1.95;;;1.30;;
19605;SDS011;9950;50.168;8.210;2023-04-03T13:38:59;4.18;;;1.48;;
19605;SDS011;9950;50.168;8.210;2023-04-03T13:41:29;3.38;;;1.35;;
19605;SDS011;9950;50.168;8.210;2023-04-03T13:43:56;2.88;;;1.55;;
19605;SDS011;9950;50.168;8.210;2023-04-03T13:46:25;1.52;;;1.20;;
19605;SDS011;9950;50.168;8.210;2023-04-03T13:48:53;2.53;;;1.45;;
19605;SDS011;9950;50.168;8.210;2023-04-03T13:51:22;3.50;;;1.77;;
19605;SDS011;9950;50.168;8.210;2023-04-03T13:53:50;1.88;;;1.17;;
19605;SDS011;9950;50.168;8.210;2023-04-03T13:56:24;1.85;;;1.30;;
19605;SDS011;9950;50.168;8.210;2023-04-03T13:58:53;3.10;;;1.50;;
19605;SDS011;9950;50.168;8.210;2023-04-03T14:01:21;2.58;;;1.25;;
19605;SDS011;9950;50.168;8.210;2023-04-03T14:03:52;2.47;;;1.50;;
19605;SDS011;9950;50.168;8.210;2023-04-03T14:06:20;3.63;;;1.85;;
19605;SDS011;9950;50.168;8.210;2023-04-03T14:08:47;2.92;;;1.58;;
19605;SDS011;9950;50.168;8.210;2023-04-03T14:11:16;2.13;;;1.33;;
19605;SDS011;9950;50.168;8.210;2023-04-03T14:13:46;1.48;;;1.30;;
19605;SDS011;9950;50.168;8.210;2023-04-03T14:16:14;2.45;;;1.30;;
19605;SDS011;9950;50.168;8.210;2023-04-03T14:18:42;2.45;;;1.38;;
19605;SDS011;9950;50.168;8.210;2023-04-03T14:21:10;2.28;;;1.20;;
19605;SDS011;9950;50.168;8.210;2023-04-03T14:23:37;2.50;;;1.48;;
19605;SDS011;9950;50.168;8.210;2023-04-03T14:26:08;3.08;;;1.30;;
19605;SDS011;9950;50.168;8.210;2023-04-03T14:28:35;5.90;;;1.25;;
19605;SDS011;9950;50.168;8.210;2023-04-03T14:31:05;1.90;;;1.17;;
19605;SDS011;9950;50.168;8.210;2023-04-03T14:33:32;2.38;;;1.20;;
19605;SDS011;9950;50.168;8.210;2023-04-03T14:36:01;2.85;;;1.25;;
19605;SDS011;9950;50.168;8.210;2023-04-03T14:38:29;2.13;;;1.20;;
19605;SDS011;9950;50.168;8.210;2023-04-03T14:40:58;3.00;;;1.13;;
19605;SDS011;9950;50.168;8.210;2023-04-03T14:43:25;3.70;;;1.42;;
19605;SDS011;9950;50.168;8.210;2023-04-03T14:45:52;2.38;;;1.05;;
19605;SDS011;9950;50.168;8.210;2023-04-03T14:48:22;2.17;;;1.00;;
19605;SDS011;9950;50.168;8.210;2023-04-03T14:50:50;2.15;;;1.20;;
19605;SDS011;9950;50.168;8.210;2023-04-03T14:53:18;2.45;;;1.30;;
19605;SDS011;9950;50.168;8.210;2023-04-03T14:55:47;1.80;;;0.90;;
19605;SDS011;9950;50.168;8.210;2023-04-03T14:58:15;2.28;;;1.10;;
19605;SDS011;9950;50.168;8.210;2023-04-03T15:00:43;2.15;;;1.25;;
19605;SDS011;9950;50.168;8.210;2023-04-03T15:03:12;3.53;;;1.42;;
19605;SDS011;9950;50.168;8.210;2023-04-03T15:05:41;2.47;;;1.10;;
19605;SDS011;9950;50.168;8.210;2023-04-03T15:08:13;2.15;;;1.00;;
19605;SDS011;9950;50.168;8.210;2023-04-03T15:10:44;2.17;;;1.17;;
19605;SDS011;9950;50.168;8.210;2023-04-03T15:13:11;2.63;;;1.30;;
19605;SDS011;9950;50.168;8.210;2023-04-03T15:15:39;3.40;;;1.40;;
19605;SDS011;9950;50.168;8.210;2023-04-03T15:18:07;4.10;;;1.45;;
19605;SDS011;9950;50.168;8.210;2023-04-03T15:20:37;1.83;;;1.38;;
19605;SDS011;9950;50.168;8.210;2023-04-03T15:23:05;2.45;;;1.30;;
19605;SDS011;9950;50.168;8.210;2023-04-03T15:25:33;3.20;;;1.52;;
19605;SDS011;9950;50.168;8.210;2023-04-03T15:28:00;3.03;;;1.10;;